sensor_id;sensor_type;location;lat;lon;timestamp;temperature;humidity
74488;DHT22;63019;51.080;13.642;2022-10-16T00:00:38;14.70;93.00
74488;DHT22;63019;51.080;13.642;2022-10-16T00:01:40;14.70;93.10
74488;DHT22;63019;51.080;13.642;2022-10-16T00:02:42;14.70;93.10
74488;DHT22;63019;51.080;13.642;2022-10-16T00:03:44;14.70;93.10
74488;DHT22;63019;51.080;13.642;2022-10-16T00:04:46;14.70;93.10
74488;DHT22;63019;51.080;13.642;2022-10-16T00:05:48;14.80;93.10
74488;DHT22;63019;51.080;13.642;2022-10-16T00:06:50;14.70;93.20
74488;DHT22;63019;51.080;13.642;2022-10-16T00:07:51;14.70;93.20
74488;DHT22;63019;51.080;13.642;2022-10-16T00:08:54;14.80;93.10
74488;DHT22;63019;51.080;13.642;2022-10-16T00:09:56;14.80;93.30
74488;DHT22;63019;51.080;13.642;2022-10-16T00:11:05;14.70;93.20
74488;DHT22;63019;51.080;13.642;2022-10-16T00:12:07;14.70;93.20
74488;DHT22;63019;51.080;13.642;2022-10-16T00:13:09;14.70;93.10
74488;DHT22;63019;51.080;13.642;2022-10-16T00:14:13;14.80;93.20
74488;DHT22;63019;51.080;13.642;2022-10-16T00:15:15;14.70;93.10
74488;DHT22;63019;51.080;13.642;2022-10-16T00:16:18;14.80;93.20
74488;DHT22;63019;51.080;13.642;2022-10-16T00:17:19;14.80;93.20
74488;DHT22;63019;51.080;13.642;2022-10-16T00:18:21;14.70;93.10
74488;DHT22;63019;51.080;13.642;2022-10-16T00:19:23;14.80;93.10
74488;DHT22;63019;51.080;13.642;2022-10-16T00:20:25;14.70;93.00
74488;DHT22;63019;51.080;13.642;2022-10-16T00:21:29;14.70;93.10
74488;DHT22;63019;51.080;13.642;2022-10-16T00:22:31;14.70;93.10
74488;DHT22;63019;51.080;13.642;2022-10-16T00:23:33;14.70;93.10
74488;DHT22;63019;51.080;13.642;2022-10-16T00:24:36;14.60;93.10
74488;DHT22;63019;51.080;13.642;2022-10-16T00:25:38;14.60;93.30
74488;DHT22;63019;51.080;13.642;2022-10-16T00:26:40;14.60;93.30
74488;DHT22;63019;51.080;13.642;2022-10-16T00:27:42;14.60;93.30
74488;DHT22;63019;51.080;13.642;2022-10-16T00:28:50;14.60;93.30
74488;DHT22;63019;51.080;13.642;2022-10-16T00:29:52;14.60;93.40
74488;DHT22;63019;51.080;13.642;2022-10-16T00:30:55;14.60;93.30
74488;DHT22;63019;51.080;13.642;2022-10-16T00:31:56;14.60;93.30
74488;DHT22;63019;51.080;13.642;2022-10-16T00:32:58;14.60;93.40
74488;DHT22;63019;51.080;13.642;2022-10-16T00:34:00;14.50;93.30
74488;DHT22;63019;51.080;13.642;2022-10-16T00:35:02;14.50;93.40
74488;DHT22;63019;51.080;13.642;2022-10-16T00:36:07;14.50;93.40
74488;DHT22;63019;51.080;13.642;2022-10-16T00:37:09;14.40;93.50
74488;DHT22;63019;51.080;13.642;2022-10-16T00:38:11;14.40;93.50
74488;DHT22;63019;51.080;13.642;2022-10-16T00:39:13;14.40;93.50
74488;DHT22;63019;51.080;13.642;2022-10-16T00:40:14;14.40;93.50
74488;DHT22;63019;51.080;13.642;2022-10-16T00:41:17;14.40;93.40
74488;DHT22;63019;51.080;13.642;2022-10-16T00:42:19;14.40;93.50
74488;DHT22;63019;51.080;13.642;2022-10-16T00:44:57;14.30;93.60
74488;DHT22;63019;51.080;13.642;2022-10-16T00:46:00;14.30;93.80
74488;DHT22;63019;51.080;13.642;2022-10-16T00:47:02;14.30;93.80
74488;DHT22;63019;51.080;13.642;2022-10-16T00:48:04;14.30;93.80
74488;DHT22;63019;51.080;13.642;2022-10-16T00:49:13;14.30;93.80
74488;DHT22;63019;51.080;13.642;2022-10-16T00:50:22;14.30;93.80
74488;DHT22;63019;51.080;13.642;2022-10-16T00:51:30;14.30;93.80
74488;DHT22;63019;51.080;13.642;2022-10-16T00:52:33;14.30;93.60
74488;DHT22;63019;51.080;13.642;2022-10-16T00:53:36;14.30;93.60
74488;DHT22;63019;51.080;13.642;2022-10-16T00:54:38;14.30;93.70
74488;DHT22;63019;51.080;13.642;2022-10-16T00:55:40;14.30;93.90
74488;DHT22;63019;51.080;13.642;2022-10-16T00:56:44;14.30;93.80
74488;DHT22;63019;51.080;13.642;2022-10-16T00:57:48;14.30;94.10
74488;DHT22;63019;51.080;13.642;2022-10-16T00:58:50;14.40;94.20
74488;DHT22;63019;51.080;13.642;2022-10-16T00:59:52;14.40;94.10
74488;DHT22;63019;51.080;13.642;2022-10-16T01:00:54;14.40;94.30
74488;DHT22;63019;51.080;13.642;2022-10-16T01:01:57;14.40;94.20
74488;DHT22;63019;51.080;13.642;2022-10-16T01:03:01;14.40;94.30
74488;DHT22;63019;51.080;13.642;2022-10-16T01:04:03;14.30;94.40
74488;DHT22;63019;51.080;13.642;2022-10-16T01:05:05;14.40;94.20
74488;DHT22;63019;51.080;13.642;2022-10-16T01:06:23;14.40;94.20
74488;DHT22;63019;51.080;13.642;2022-10-16T01:07:39;14.40;94.00
74488;DHT22;63019;51.080;13.642;2022-10-16T01:10:01;14.40;94.20
74488;DHT22;63019;51.080;13.642;2022-10-16T01:11:01;14.40;94.30
74488;DHT22;63019;51.080;13.642;2022-10-16T01:12:25;14.40;94.00
74488;DHT22;63019;51.080;13.642;2022-10-16T01:13:33;14.40;94.10
74488;DHT22;63019;51.080;13.642;2022-10-16T01:14:48;14.40;94.20
74488;DHT22;63019;51.080;13.642;2022-10-16T01:17:36;14.40;94.20
74488;DHT22;63019;51.080;13.642;2022-10-16T01:20:16;14.50;94.20
74488;DHT22;63019;51.080;13.642;2022-10-16T01:22:30;14.50;93.90
74488;DHT22;63019;51.080;13.642;2022-10-16T01:25:29;14.50;94.10
74488;DHT22;63019;51.080;13.642;2022-10-16T01:28:06;14.50;94.10
74488;DHT22;63019;51.080;13.642;2022-10-16T01:29:27;14.50;93.90
74488;DHT22;63019;51.080;13.642;2022-10-16T01:30:32;14.50;94.10
74488;DHT22;63019;51.080;13.642;2022-10-16T01:31:37;14.50;93.80
74488;DHT22;63019;51.080;13.642;2022-10-16T01:32:45;14.60;93.80
74488;DHT22;63019;51.080;13.642;2022-10-16T01:34:16;14.60;93.60
74488;DHT22;63019;51.080;13.642;2022-10-16T01:35:46;14.60;93.80
74488;DHT22;63019;51.080;13.642;2022-10-16T01:36:56;14.70;94.00
74488;DHT22;63019;51.080;13.642;2022-10-16T01:38:16;14.70;93.70
74488;DHT22;63019;51.080;13.642;2022-10-16T01:39:23;14.70;94.30
74488;DHT22;63019;51.080;13.642;2022-10-16T01:40:27;14.70;93.60
74488;DHT22;63019;51.080;13.642;2022-10-16T01:41:39;14.70;93.60
74488;DHT22;63019;51.080;13.642;2022-10-16T01:42:46;14.80;93.60
74488;DHT22;63019;51.080;13.642;2022-10-16T01:43:56;14.80;93.50
74488;DHT22;63019;51.080;13.642;2022-10-16T01:45:00;14.80;93.60
74488;DHT22;63019;51.080;13.642;2022-10-16T01:46:02;14.80;93.80
74488;DHT22;63019;51.080;13.642;2022-10-16T01:47:05;14.80;93.90
74488;DHT22;63019;51.080;13.642;2022-10-16T01:48:12;14.80;93.90
74488;DHT22;63019;51.080;13.642;2022-10-16T01:49:16;14.80;93.90
74488;DHT22;63019;51.080;13.642;2022-10-16T01:50:19;14.90;93.90
74488;DHT22;63019;51.080;13.642;2022-10-16T01:51:23;14.90;94.00
74488;DHT22;63019;51.080;13.642;2022-10-16T01:52:27;14.90;93.90
74488;DHT22;63019;51.080;13.642;2022-10-16T01:53:31;14.90;93.90
74488;DHT22;63019;51.080;13.642;2022-10-16T01:54:35;14.90;93.80
74488;DHT22;63019;51.080;13.642;2022-10-16T01:55:39;14.90;93.70
74488;DHT22;63019;51.080;13.642;2022-10-16T01:56:46;15.00;93.80
74488;DHT22;63019;51.080;13.642;2022-10-16T01:57:49;15.00;93.40
74488;DHT22;63019;51.080;13.642;2022-10-16T01:58:56;14.90;93.30
74488;DHT22;63019;51.080;13.642;2022-10-16T02:00:03;15.00;93.30
74488;DHT22;63019;51.080;13.642;2022-10-16T02:01:07;15.00;93.20
74488;DHT22;63019;51.080;13.642;2022-10-16T02:02:11;14.90;93.50
74488;DHT22;63019;51.080;13.642;2022-10-16T02:03:17;15.00;93.10
74488;DHT22;63019;51.080;13.642;2022-10-16T02:04:36;15.00;93.10
74488;DHT22;63019;51.080;13.642;2022-10-16T02:05:46;15.00;93.20
74488;DHT22;63019;51.080;13.642;2022-10-16T02:06:48;15.00;93.20
74488;DHT22;63019;51.080;13.642;2022-10-16T02:07:50;14.90;93.20
74488;DHT22;63019;51.080;13.642;2022-10-16T02:08:52;15.00;93.10
74488;DHT22;63019;51.080;13.642;2022-10-16T02:09:54;15.00;93.10
74488;DHT22;63019;51.080;13.642;2022-10-16T02:10:57;15.00;93.10
74488;DHT22;63019;51.080;13.642;2022-10-16T02:12:03;15.00;93.10
74488;DHT22;63019;51.080;13.642;2022-10-16T02:13:15;15.00;93.50
74488;DHT22;63019;51.080;13.642;2022-10-16T02:14:18;15.00;93.30
74488;DHT22;63019;51.080;13.642;2022-10-16T02:15:20;15.00;93.10
74488;DHT22;63019;51.080;13.642;2022-10-16T02:16:37;15.00;93.20
74488;DHT22;63019;51.080;13.642;2022-10-16T02:17:39;15.00;93.10
74488;DHT22;63019;51.080;13.642;2022-10-16T02:18:42;15.00;93.10
74488;DHT22;63019;51.080;13.642;2022-10-16T02:19:46;15.00;93.00
74488;DHT22;63019;51.080;13.642;2022-10-16T02:20:53;15.00;93.00
74488;DHT22;63019;51.080;13.642;2022-10-16T02:22:03;15.10;93.00
74488;DHT22;63019;51.080;13.642;2022-10-16T02:23:10;15.10;93.00
74488;DHT22;63019;51.080;13.642;2022-10-16T02:25:40;15.10;93.40
74488;DHT22;63019;51.080;13.642;2022-10-16T02:28:22;15.00;93.40
74488;DHT22;63019;51.080;13.642;2022-10-16T02:29:26;15.00;93.30
74488;DHT22;63019;51.080;13.642;2022-10-16T02:31:35;15.00;93.40
74488;DHT22;63019;51.080;13.642;2022-10-16T02:32:40;15.00;93.50
74488;DHT22;63019;51.080;13.642;2022-10-16T02:33:44;15.00;93.50
74488;DHT22;63019;51.080;13.642;2022-10-16T02:34:48;15.00;93.50
74488;DHT22;63019;51.080;13.642;2022-10-16T02:35:50;15.00;93.40
74488;DHT22;63019;51.080;13.642;2022-10-16T02:36:53;15.00;93.50
74488;DHT22;63019;51.080;13.642;2022-10-16T02:37:56;15.00;93.40
74488;DHT22;63019;51.080;13.642;2022-10-16T02:38:59;15.00;93.50
74488;DHT22;63019;51.080;13.642;2022-10-16T02:40:03;15.00;93.40
74488;DHT22;63019;51.080;13.642;2022-10-16T02:41:06;15.00;93.40
74488;DHT22;63019;51.080;13.642;2022-10-16T02:42:12;15.00;93.50
74488;DHT22;63019;51.080;13.642;2022-10-16T02:43:14;15.00;93.50
74488;DHT22;63019;51.080;13.642;2022-10-16T02:44:16;15.00;93.50
74488;DHT22;63019;51.080;13.642;2022-10-16T02:45:19;15.00;93.40
74488;DHT22;63019;51.080;13.642;2022-10-16T02:46:21;15.00;93.40
74488;DHT22;63019;51.080;13.642;2022-10-16T02:47:22;15.00;93.30
74488;DHT22;63019;51.080;13.642;2022-10-16T02:48:24;15.00;93.30
74488;DHT22;63019;51.080;13.642;2022-10-16T02:49:26;15.00;93.20
74488;DHT22;63019;51.080;13.642;2022-10-16T02:50:27;15.00;93.20
74488;DHT22;63019;51.080;13.642;2022-10-16T02:51:29;14.90;93.30
74488;DHT22;63019;51.080;13.642;2022-10-16T02:52:31;15.00;93.50
74488;DHT22;63019;51.080;13.642;2022-10-16T02:53:33;15.00;93.70
74488;DHT22;63019;51.080;13.642;2022-10-16T02:54:34;14.90;93.50
74488;DHT22;63019;51.080;13.642;2022-10-16T02:55:36;14.90;93.50
74488;DHT22;63019;51.080;13.642;2022-10-16T02:56:38;14.90;93.60
74488;DHT22;63019;51.080;13.642;2022-10-16T02:57:40;14.90;93.50
74488;DHT22;63019;51.080;13.642;2022-10-16T02:58:42;14.90;93.60
74488;DHT22;63019;51.080;13.642;2022-10-16T02:59:44;14.90;93.60
74488;DHT22;63019;51.080;13.642;2022-10-16T03:00:45;14.90;93.60
74488;DHT22;63019;51.080;13.642;2022-10-16T03:01:47;14.80;93.70
74488;DHT22;63019;51.080;13.642;2022-10-16T03:02:49;14.80;93.70
74488;DHT22;63019;51.080;13.642;2022-10-16T03:03:51;14.80;93.60
74488;DHT22;63019;51.080;13.642;2022-10-16T03:04:52;14.80;93.60
74488;DHT22;63019;51.080;13.642;2022-10-16T03:05:54;14.80;93.60
74488;DHT22;63019;51.080;13.642;2022-10-16T03:06:56;14.80;93.60
74488;DHT22;63019;51.080;13.642;2022-10-16T03:07:57;14.80;93.50
74488;DHT22;63019;51.080;13.642;2022-10-16T03:09:01;14.80;93.50
74488;DHT22;63019;51.080;13.642;2022-10-16T03:10:03;14.90;93.60
74488;DHT22;63019;51.080;13.642;2022-10-16T03:11:05;14.80;93.50
74488;DHT22;63019;51.080;13.642;2022-10-16T03:12:07;14.80;93.50
74488;DHT22;63019;51.080;13.642;2022-10-16T03:13:08;14.80;93.50
74488;DHT22;63019;51.080;13.642;2022-10-16T03:14:10;14.80;93.50
74488;DHT22;63019;51.080;13.642;2022-10-16T03:15:12;14.80;93.50
74488;DHT22;63019;51.080;13.642;2022-10-16T03:16:13;14.80;93.40
74488;DHT22;63019;51.080;13.642;2022-10-16T03:17:15;14.80;93.40
74488;DHT22;63019;51.080;13.642;2022-10-16T03:18:18;14.80;93.30
74488;DHT22;63019;51.080;13.642;2022-10-16T03:19:20;14.90;93.30
74488;DHT22;63019;51.080;13.642;2022-10-16T03:20:21;14.90;93.30
74488;DHT22;63019;51.080;13.642;2022-10-16T03:21:23;14.80;93.40
74488;DHT22;63019;51.080;13.642;2022-10-16T03:22:25;14.80;93.50
74488;DHT22;63019;51.080;13.642;2022-10-16T03:23:27;14.80;93.40
74488;DHT22;63019;51.080;13.642;2022-10-16T03:24:34;14.80;93.60
74488;DHT22;63019;51.080;13.642;2022-10-16T03:25:36;14.80;93.60
74488;DHT22;63019;51.080;13.642;2022-10-16T03:26:37;14.80;93.50
74488;DHT22;63019;51.080;13.642;2022-10-16T03:27:39;14.80;93.40
74488;DHT22;63019;51.080;13.642;2022-10-16T03:28:41;14.80;93.40
74488;DHT22;63019;51.080;13.642;2022-10-16T03:29:43;14.80;93.40
74488;DHT22;63019;51.080;13.642;2022-10-16T03:30:44;14.80;93.50
74488;DHT22;63019;51.080;13.642;2022-10-16T03:31:46;14.80;93.40
74488;DHT22;63019;51.080;13.642;2022-10-16T03:32:49;14.80;93.40
74488;DHT22;63019;51.080;13.642;2022-10-16T03:33:55;14.80;93.40
74488;DHT22;63019;51.080;13.642;2022-10-16T03:34:57;14.70;93.30
74488;DHT22;63019;51.080;13.642;2022-10-16T03:35:59;14.80;93.50
74488;DHT22;63019;51.080;13.642;2022-10-16T03:37:01;14.70;93.40
74488;DHT22;63019;51.080;13.642;2022-10-16T03:38:03;14.80;93.60
74488;DHT22;63019;51.080;13.642;2022-10-16T03:39:05;14.70;93.60
74488;DHT22;63019;51.080;13.642;2022-10-16T03:40:07;14.70;93.60
74488;DHT22;63019;51.080;13.642;2022-10-16T03:41:08;14.70;93.80
74488;DHT22;63019;51.080;13.642;2022-10-16T03:42:10;14.70;93.70
74488;DHT22;63019;51.080;13.642;2022-10-16T03:43:12;14.70;93.70
74488;DHT22;63019;51.080;13.642;2022-10-16T03:44:17;14.70;93.80
74488;DHT22;63019;51.080;13.642;2022-10-16T03:45:18;14.70;93.80
74488;DHT22;63019;51.080;13.642;2022-10-16T03:46:20;14.70;93.80
74488;DHT22;63019;51.080;13.642;2022-10-16T03:47:22;14.70;93.90
74488;DHT22;63019;51.080;13.642;2022-10-16T03:48:25;14.70;94.00
74488;DHT22;63019;51.080;13.642;2022-10-16T03:49:27;14.70;94.00
74488;DHT22;63019;51.080;13.642;2022-10-16T03:50:29;14.70;93.90
74488;DHT22;63019;51.080;13.642;2022-10-16T03:51:31;14.70;94.00
74488;DHT22;63019;51.080;13.642;2022-10-16T03:52:32;14.70;93.90
74488;DHT22;63019;51.080;13.642;2022-10-16T03:53:34;14.70;94.00
74488;DHT22;63019;51.080;13.642;2022-10-16T03:54:36;14.70;93.90
74488;DHT22;63019;51.080;13.642;2022-10-16T03:55:38;14.70;93.90
74488;DHT22;63019;51.080;13.642;2022-10-16T03:56:39;14.70;93.80
74488;DHT22;63019;51.080;13.642;2022-10-16T03:57:41;14.70;93.80
74488;DHT22;63019;51.080;13.642;2022-10-16T03:58:43;14.70;93.80
74488;DHT22;63019;51.080;13.642;2022-10-16T03:59:44;14.70;93.90
74488;DHT22;63019;51.080;13.642;2022-10-16T04:00:46;14.70;93.80
74488;DHT22;63019;51.080;13.642;2022-10-16T04:01:49;14.80;93.90
74488;DHT22;63019;51.080;13.642;2022-10-16T04:02:51;14.80;93.80
74488;DHT22;63019;51.080;13.642;2022-10-16T04:03:52;14.80;93.80
74488;DHT22;63019;51.080;13.642;2022-10-16T04:04:54;14.80;93.80
74488;DHT22;63019;51.080;13.642;2022-10-16T04:05:56;14.80;93.80
74488;DHT22;63019;51.080;13.642;2022-10-16T04:06:58;14.80;93.70
74488;DHT22;63019;51.080;13.642;2022-10-16T04:07:59;14.80;93.60
74488;DHT22;63019;51.080;13.642;2022-10-16T04:09:01;14.80;93.60
74488;DHT22;63019;51.080;13.642;2022-10-16T04:10:04;14.80;93.60
74488;DHT22;63019;51.080;13.642;2022-10-16T04:11:05;14.90;93.60
74488;DHT22;63019;51.080;13.642;2022-10-16T04:12:07;14.90;93.50
74488;DHT22;63019;51.080;13.642;2022-10-16T04:13:09;14.90;93.60
74488;DHT22;63019;51.080;13.642;2022-10-16T04:14:11;14.90;93.60
74488;DHT22;63019;51.080;13.642;2022-10-16T04:15:13;14.90;93.50
74488;DHT22;63019;51.080;13.642;2022-10-16T04:16:15;14.90;93.60
74488;DHT22;63019;51.080;13.642;2022-10-16T04:17:16;14.90;93.50
74488;DHT22;63019;51.080;13.642;2022-10-16T04:18:18;14.90;93.50
74488;DHT22;63019;51.080;13.642;2022-10-16T04:19:20;15.00;93.60
74488;DHT22;63019;51.080;13.642;2022-10-16T04:20:21;14.90;93.50
74488;DHT22;63019;51.080;13.642;2022-10-16T04:21:23;14.90;93.60
74488;DHT22;63019;51.080;13.642;2022-10-16T04:22:25;15.00;93.60
74488;DHT22;63019;51.080;13.642;2022-10-16T04:23:27;14.90;93.50
74488;DHT22;63019;51.080;13.642;2022-10-16T04:24:29;14.90;93.50
74488;DHT22;63019;51.080;13.642;2022-10-16T04:25:31;15.00;93.40
74488;DHT22;63019;51.080;13.642;2022-10-16T04:26:32;15.00;93.50
74488;DHT22;63019;51.080;13.642;2022-10-16T04:27:34;15.00;93.60
74488;DHT22;63019;51.080;13.642;2022-10-16T04:28:36;14.90;93.50
74488;DHT22;63019;51.080;13.642;2022-10-16T04:29:38;14.90;93.50
74488;DHT22;63019;51.080;13.642;2022-10-16T04:30:40;15.00;93.50
74488;DHT22;63019;51.080;13.642;2022-10-16T04:31:41;14.90;93.60
74488;DHT22;63019;51.080;13.642;2022-10-16T04:32:43;15.00;93.50
74488;DHT22;63019;51.080;13.642;2022-10-16T04:33:45;15.00;93.40
74488;DHT22;63019;51.080;13.642;2022-10-16T04:34:46;15.00;93.40
74488;DHT22;63019;51.080;13.642;2022-10-16T04:35:48;15.00;93.40
74488;DHT22;63019;51.080;13.642;2022-10-16T04:36:50;15.00;93.40
74488;DHT22;63019;51.080;13.642;2022-10-16T04:37:51;15.00;93.40
74488;DHT22;63019;51.080;13.642;2022-10-16T04:38:53;15.00;93.30
74488;DHT22;63019;51.080;13.642;2022-10-16T04:39:55;15.00;93.40
74488;DHT22;63019;51.080;13.642;2022-10-16T04:40:57;15.00;93.40
74488;DHT22;63019;51.080;13.642;2022-10-16T04:41:58;15.00;93.40
74488;DHT22;63019;51.080;13.642;2022-10-16T04:43:00;15.00;93.50
74488;DHT22;63019;51.080;13.642;2022-10-16T04:44:02;15.00;93.60
74488;DHT22;63019;51.080;13.642;2022-10-16T04:45:05;15.00;93.50
74488;DHT22;63019;51.080;13.642;2022-10-16T04:46:07;15.00;93.50
74488;DHT22;63019;51.080;13.642;2022-10-16T04:47:09;15.00;93.50
74488;DHT22;63019;51.080;13.642;2022-10-16T04:48:10;15.00;93.50
74488;DHT22;63019;51.080;13.642;2022-10-16T04:49:12;15.00;93.50
74488;DHT22;63019;51.080;13.642;2022-10-16T04:50:14;15.00;93.50
74488;DHT22;63019;51.080;13.642;2022-10-16T04:51:16;15.00;93.50
74488;DHT22;63019;51.080;13.642;2022-10-16T04:52:17;15.00;93.30
74488;DHT22;63019;51.080;13.642;2022-10-16T04:53:20;15.00;93.50
74488;DHT22;63019;51.080;13.642;2022-10-16T04:54:22;15.00;93.50
74488;DHT22;63019;51.080;13.642;2022-10-16T04:55:23;15.00;93.50
74488;DHT22;63019;51.080;13.642;2022-10-16T04:56:25;15.00;93.40
74488;DHT22;63019;51.080;13.642;2022-10-16T04:57:28;15.00;93.40
74488;DHT22;63019;51.080;13.642;2022-10-16T04:58:30;15.00;93.30
74488;DHT22;63019;51.080;13.642;2022-10-16T04:59:32;15.00;93.30
74488;DHT22;63019;51.080;13.642;2022-10-16T05:00:34;15.10;93.40
74488;DHT22;63019;51.080;13.642;2022-10-16T05:01:35;15.10;93.30
74488;DHT22;63019;51.080;13.642;2022-10-16T05:02:37;15.10;93.40
74488;DHT22;63019;51.080;13.642;2022-10-16T05:03:39;15.10;93.30
74488;DHT22;63019;51.080;13.642;2022-10-16T05:04:41;15.20;93.30
74488;DHT22;63019;51.080;13.642;2022-10-16T05:05:45;15.20;93.20
74488;DHT22;63019;51.080;13.642;2022-10-16T05:06:47;15.20;93.10
74488;DHT22;63019;51.080;13.642;2022-10-16T05:07:49;15.20;93.10
74488;DHT22;63019;51.080;13.642;2022-10-16T05:08:51;15.20;93.20
74488;DHT22;63019;51.080;13.642;2022-10-16T05:09:52;15.20;93.10
74488;DHT22;63019;51.080;13.642;2022-10-16T05:10:54;15.20;93.10
74488;DHT22;63019;51.080;13.642;2022-10-16T05:11:56;15.30;93.10
74488;DHT22;63019;51.080;13.642;2022-10-16T05:12:58;15.20;93.10
74488;DHT22;63019;51.080;13.642;2022-10-16T05:14:00;15.30;93.00
74488;DHT22;63019;51.080;13.642;2022-10-16T05:15:02;15.20;92.90
74488;DHT22;63019;51.080;13.642;2022-10-16T05:16:04;15.20;92.90
74488;DHT22;63019;51.080;13.642;2022-10-16T05:17:06;15.30;93.00
74488;DHT22;63019;51.080;13.642;2022-10-16T05:18:08;15.30;93.00
74488;DHT22;63019;51.080;13.642;2022-10-16T05:19:10;15.20;92.90
74488;DHT22;63019;51.080;13.642;2022-10-16T05:20:28;15.20;93.00
74488;DHT22;63019;51.080;13.642;2022-10-16T05:21:30;15.20;92.90
74488;DHT22;63019;51.080;13.642;2022-10-16T05:22:32;15.20;92.90
74488;DHT22;63019;51.080;13.642;2022-10-16T05:23:34;15.20;92.90
74488;DHT22;63019;51.080;13.642;2022-10-16T05:24:35;15.20;92.90
74488;DHT22;63019;51.080;13.642;2022-10-16T05:25:37;15.20;93.00
74488;DHT22;63019;51.080;13.642;2022-10-16T05:26:39;15.20;93.00
74488;DHT22;63019;51.080;13.642;2022-10-16T05:27:41;15.10;93.00
74488;DHT22;63019;51.080;13.642;2022-10-16T05:28:42;15.10;93.00
74488;DHT22;63019;51.080;13.642;2022-10-16T05:29:47;15.10;93.00
74488;DHT22;63019;51.080;13.642;2022-10-16T05:30:49;15.00;93.00
74488;DHT22;63019;51.080;13.642;2022-10-16T05:31:52;15.00;93.10
74488;DHT22;63019;51.080;13.642;2022-10-16T05:32:54;15.00;93.20
74488;DHT22;63019;51.080;13.642;2022-10-16T05:34:00;15.00;93.20
74488;DHT22;63019;51.080;13.642;2022-10-16T05:35:02;15.00;93.30
74488;DHT22;63019;51.080;13.642;2022-10-16T05:36:08;15.00;93.40
74488;DHT22;63019;51.080;13.642;2022-10-16T05:37:11;15.00;93.40
74488;DHT22;63019;51.080;13.642;2022-10-16T05:38:13;15.00;93.30
74488;DHT22;63019;51.080;13.642;2022-10-16T05:39:15;15.00;93.30
74488;DHT22;63019;51.080;13.642;2022-10-16T05:40:17;15.00;93.20
74488;DHT22;63019;51.080;13.642;2022-10-16T05:41:19;15.00;93.30
74488;DHT22;63019;51.080;13.642;2022-10-16T05:42:23;15.00;93.40
74488;DHT22;63019;51.080;13.642;2022-10-16T05:43:26;15.00;93.40
74488;DHT22;63019;51.080;13.642;2022-10-16T05:44:28;15.00;93.40
74488;DHT22;63019;51.080;13.642;2022-10-16T05:45:30;15.00;93.50
74488;DHT22;63019;51.080;13.642;2022-10-16T05:46:32;15.00;93.30
74488;DHT22;63019;51.080;13.642;2022-10-16T05:47:34;15.00;93.40
74488;DHT22;63019;51.080;13.642;2022-10-16T05:48:36;15.00;93.40
74488;DHT22;63019;51.080;13.642;2022-10-16T05:49:37;15.00;93.40
74488;DHT22;63019;51.080;13.642;2022-10-16T05:50:42;15.00;93.30
74488;DHT22;63019;51.080;13.642;2022-10-16T05:51:43;15.00;93.40
74488;DHT22;63019;51.080;13.642;2022-10-16T05:52:45;15.00;93.40
74488;DHT22;63019;51.080;13.642;2022-10-16T05:53:47;15.00;93.50
74488;DHT22;63019;51.080;13.642;2022-10-16T05:54:48;15.00;93.40
74488;DHT22;63019;51.080;13.642;2022-10-16T05:55:55;15.00;93.40
74488;DHT22;63019;51.080;13.642;2022-10-16T05:56:57;15.00;93.50
74488;DHT22;63019;51.080;13.642;2022-10-16T05:57:58;15.00;93.60
74488;DHT22;63019;51.080;13.642;2022-10-16T05:59:00;15.00;93.60
74488;DHT22;63019;51.080;13.642;2022-10-16T06:00:03;15.00;93.80
74488;DHT22;63019;51.080;13.642;2022-10-16T06:01:09;14.90;93.80
74488;DHT22;63019;51.080;13.642;2022-10-16T06:02:13;14.90;93.80
74488;DHT22;63019;51.080;13.642;2022-10-16T06:03:15;15.00;93.70
74488;DHT22;63019;51.080;13.642;2022-10-16T06:04:16;14.90;93.60
74488;DHT22;63019;51.080;13.642;2022-10-16T06:05:18;15.00;93.80
74488;DHT22;63019;51.080;13.642;2022-10-16T06:06:22;15.00;93.80
74488;DHT22;63019;51.080;13.642;2022-10-16T06:07:24;15.00;93.70
74488;DHT22;63019;51.080;13.642;2022-10-16T06:08:26;15.00;93.70
74488;DHT22;63019;51.080;13.642;2022-10-16T06:09:28;15.00;93.70
74488;DHT22;63019;51.080;13.642;2022-10-16T06:10:29;15.00;93.60
74488;DHT22;63019;51.080;13.642;2022-10-16T06:11:32;15.00;93.60
74488;DHT22;63019;51.080;13.642;2022-10-16T06:12:34;15.00;93.70
74488;DHT22;63019;51.080;13.642;2022-10-16T06:13:35;15.00;93.60
74488;DHT22;63019;51.080;13.642;2022-10-16T06:14:37;15.00;93.60
74488;DHT22;63019;51.080;13.642;2022-10-16T06:15:40;15.00;93.50
74488;DHT22;63019;51.080;13.642;2022-10-16T06:16:43;15.10;93.50
74488;DHT22;63019;51.080;13.642;2022-10-16T06:17:45;15.10;93.50
74488;DHT22;63019;51.080;13.642;2022-10-16T06:18:46;15.10;93.50
74488;DHT22;63019;51.080;13.642;2022-10-16T06:19:48;15.10;93.50
74488;DHT22;63019;51.080;13.642;2022-10-16T06:20:50;15.20;93.50
74488;DHT22;63019;51.080;13.642;2022-10-16T06:21:52;15.20;93.50
74488;DHT22;63019;51.080;13.642;2022-10-16T06:22:53;15.20;93.40
74488;DHT22;63019;51.080;13.642;2022-10-16T06:23:56;15.20;93.30
74488;DHT22;63019;51.080;13.642;2022-10-16T06:24:58;15.30;93.40
74488;DHT22;63019;51.080;13.642;2022-10-16T06:26:10;15.30;93.60
74488;DHT22;63019;51.080;13.642;2022-10-16T06:27:13;15.30;93.50
74488;DHT22;63019;51.080;13.642;2022-10-16T06:28:15;15.30;93.50
74488;DHT22;63019;51.080;13.642;2022-10-16T06:29:17;15.30;93.40
74488;DHT22;63019;51.080;13.642;2022-10-16T06:30:19;15.30;93.30
74488;DHT22;63019;51.080;13.642;2022-10-16T06:31:21;15.30;93.30
74488;DHT22;63019;51.080;13.642;2022-10-16T06:32:22;15.30;93.30
74488;DHT22;63019;51.080;13.642;2022-10-16T06:33:24;15.30;93.30
74488;DHT22;63019;51.080;13.642;2022-10-16T06:34:26;15.30;93.40
74488;DHT22;63019;51.080;13.642;2022-10-16T06:35:27;15.30;93.40
74488;DHT22;63019;51.080;13.642;2022-10-16T06:36:30;15.40;93.40
74488;DHT22;63019;51.080;13.642;2022-10-16T06:37:32;15.40;93.30
74488;DHT22;63019;51.080;13.642;2022-10-16T06:38:34;15.40;93.40
74488;DHT22;63019;51.080;13.642;2022-10-16T06:39:36;15.50;93.40
74488;DHT22;63019;51.080;13.642;2022-10-16T06:40:38;15.50;93.40
74488;DHT22;63019;51.080;13.642;2022-10-16T06:41:39;15.50;93.30
74488;DHT22;63019;51.080;13.642;2022-10-16T06:42:42;15.50;93.30
74488;DHT22;63019;51.080;13.642;2022-10-16T06:43:44;15.50;93.30
74488;DHT22;63019;51.080;13.642;2022-10-16T06:44:46;15.50;93.20
74488;DHT22;63019;51.080;13.642;2022-10-16T06:45:55;15.60;93.40
74488;DHT22;63019;51.080;13.642;2022-10-16T06:46:57;15.60;93.50
74488;DHT22;63019;51.080;13.642;2022-10-16T06:47:59;15.60;93.40